Time;durP1;ratioP1;P1;durP2;ratioP2;P2;SDS_P1;SDS_P2;PMS_P1;PMS_P2;Temp;Humidity;BMP_temperature;BMP_pressure;BME280_temperature;BME280_humidity;BME280_pressure;Samples;Min_cycle;Max_cycle;Signal;HPM_P1;HPM_P2
2023/01/03 00:01:24;;;;;;;1.00;0.90;;;;;;;7.52;100.00;97191.19;5053943;28;20587;-71
2023/01/03 00:03:53;;;;;;;1.17;1.07;;;;;;;7.42;100.00;97194.75;5070254;28;20484;-72
2023/01/03 00:06:28;;;;;;;1.20;1.10;;;;;;;7.38;100.00;97184.00;5071562;28;20432;-71
2023/01/03 00:08:57;;;;;;;1.10;1.00;;;;;;;7.41;100.00;97195.81;5070285;28;20894;-71
2023/01/03 00:14:22;;;;;;;1.20;1.10;;;;;;;7.41;100.00;97230.00;5070414;28;20564;-71
2023/01/03 00:16:51;;;;;;;1.20;1.10;;;;;;;7.35;100.00;97242.47;5070341;28;20440;-71
2023/01/03 00:19:18;;;;;;;1.47;1.17;;;;;;;7.30;100.00;97225.94;5053442;28;20446;-71
2023/01/03 00:21:46;;;;;;;1.10;1.00;;;;;;;7.30;100.00;97225.94;5069978;28;21017;-71
2023/01/03 00:24:12;;;;;;;1.20;1.10;;;;;;;7.29;100.00;97213.84;5071312;28;20539;-71
2023/01/03 00:26:39;;;;;;;1.10;1.00;;;;;;;7.31;100.00;97198.56;5070158;28;20446;-71
2023/01/03 00:29:07;;;;;;;2.57;1.50;;;;;;;7.16;100.00;97182.97;5070010;28;20486;-72
2023/01/03 00:31:35;;;;;;;1.97;1.47;;;;;;;7.10;100.00;97190.94;5070039;28;20436;-72
2023/01/03 00:34:02;;;;;;;1.20;1.10;;;;;;;6.98;100.00;97185.31;5069843;28;20448;-72
2023/01/03 00:36:29;;;;;;;1.33;0.87;;;;;;;7.13;100.00;97209.84;5069906;28;20931;-72
2023/01/03 00:38:56;;;;;;;1.20;1.10;;;;;;;7.17;100.00;97229.25;5067035;28;20523;-72
2023/01/03 00:41:22;;;;;;;1.13;0.97;;;;;;;7.05;100.00;97214.66;5071935;28;20551;-72
2023/01/03 00:43:49;;;;;;;1.20;1.10;;;;;;;7.15;100.00;97228.75;5072431;28;20900;-72
2023/01/03 00:46:17;;;;;;;1.70;0.87;;;;;;;7.08;100.00;97222.00;5081962;28;20464;-69
2023/01/03 00:48:45;;;;;;;1.07;0.97;;;;;;;7.05;100.00;97227.03;5094801;28;20412;-70
2023/01/03 00:51:16;;;;;;;1.50;1.40;;;;;;;7.00;100.00;97227.88;5095046;28;20432;-70
2023/01/03 00:53:44;;;;;;;2.17;1.20;;;;;;;6.86;100.00;97205.94;5084324;28;20510;-72
2023/01/03 00:56:14;;;;;;;0.83;0.80;;;;;;;6.80;100.00;97186.81;5071364;28;20968;-72
2023/01/03 00:58:42;;;;;;;1.20;1.10;;;;;;;6.97;100.00;97212.66;5072199;28;20989;-72
2023/01/03 01:01:10;;;;;;;1.67;1.00;;;;;;;6.92;100.00;97217.97;5069876;28;20924;-73
2023/01/03 01:03:40;;;;;;;1.20;1.10;;;;;;;6.94;100.00;97223.72;5069962;28;21003;-73
2023/01/03 01:06:16;;;;;;;1.20;1.10;;;;;;;6.87;100.00;97225.91;5069985;28;20459;-72
2023/01/03 01:08:43;;;;;;;1.00;0.80;;;;;;;6.98;100.00;97234.47;5069750;28;20479;-72
2023/01/03 01:11:13;;;;;;;1.00;1.00;;;;;;;6.79;100.00;97227.28;5053114;28;20929;-72
2023/01/03 01:13:41;;;;;;;2.10;1.10;;;;;;;6.81;100.00;97238.34;5069491;28;20476;-72
2023/01/03 01:16:11;;;;;;;1.10;1.00;;;;;;;6.90;100.00;97253.47;5069534;28;20444;-72
2023/01/03 01:18:39;;;;;;;1.20;1.00;;;;;;;6.86;100.00;97253.25;5070961;28;20424;-72
2023/01/03 01:21:08;;;;;;;3.00;1.10;;;;;;;6.77;100.00;97260.97;5069328;28;20468;-72
2023/01/03 01:23:37;;;;;;;0.97;0.90;;;;;;;6.90;100.00;97256.91;5069532;28;20991;-73
2023/01/03 01:26:06;;;;;;;1.30;1.13;;;;;;;6.80;100.00;97257.78;5069460;28;20464;-72
2023/01/03 01:28:33;;;;;;;1.63;1.17;;;;;;;6.67;100.00;97261.06;5070834;28;20428;-72
2023/01/03 01:31:02;;;;;;;2.10;1.60;;;;;;;6.73;100.00;97259.19;5069378;28;20944;-72
2023/01/03 01:33:32;;;;;;;1.40;1.23;;;;;;;6.69;100.00;97268.69;5069501;28;20444;-72
2023/01/03 01:36:13;;;;;;;1.83;1.20;;;;;;;6.64;100.00;97266.88;5056380;28;20520;-72
2023/01/03 01:38:40;;;;;;;1.47;1.00;;;;;;;6.68;100.00;97269.75;5084290;28;20954;-73
2023/01/03 01:41:09;;;;;;;1.80;1.20;;;;;;;6.78;100.00;97280.16;5069191;28;20459;-72
2023/01/03 01:46:40;;;;;;;1.10;0.90;;;;;;;6.47;100.00;97283.06;5070563;28;20526;-73
2023/01/03 01:49:13;;;;;;;1.67;1.00;;;;;;;6.29;100.00;97280.31;5069230;28;20483;-72
2023/01/03 01:51:41;;;;;;;1.13;1.00;;;;;;;6.25;100.00;97287.16;5070513;28;20461;-72
2023/01/03 01:54:09;;;;;;;1.30;1.20;;;;;;;6.04;100.00;97262.91;5069297;28;20467;-72
2023/01/03 01:56:49;;;;;;;1.10;1.00;;;;;;;6.30;100.00;97293.19;5070533;28;20428;-72
2023/01/03 01:59:15;;;;;;;0.97;0.87;;;;;;;6.24;100.00;97296.88;5072967;28;20531;-72
2023/01/03 02:01:44;;;;;;;2.70;1.40;;;;;;;6.27;100.00;97298.97;5072756;28;21146;-72
2023/01/03 02:04:20;;;;;;;3.53;1.20;;;;;;;6.06;100.00;97293.06;5074088;28;21050;-72
2023/01/03 02:06:48;;;;;;;1.90;1.17;;;;;;;5.98;100.00;97283.16;5060084;28;20938;-72
2023/01/03 02:09:15;;;;;;;0.90;0.90;;;;;;;6.06;100.00;97294.91;5073846;28;20428;-72
2023/01/03 02:11:47;;;;;;;1.03;1.00;;;;;;;6.03;100.00;97293.63;5072659;28;20833;-72
2023/01/03 02:14:42;;;;;;;1.03;0.93;;;;;;;6.08;100.00;97305.94;5072477;28;20459;-72
2023/01/03 02:17:15;;;;;;;1.30;1.00;;;;;;;6.17;100.00;97305.09;5072524;28;20527;-72
2023/01/03 02:20:14;;;;;;;2.93;1.30;;;;;;;6.17;100.00;97302.47;5060468;28;20416;-72
2023/01/03 02:22:55;;;;;;;1.10;0.90;;;;;;;6.25;100.00;97306.31;5072222;28;20956;-72
2023/01/03 02:25:28;;;;;;;1.23;1.13;;;;;;;6.33;100.00;97302.34;5072226;28;20472;-72
2023/01/03 02:28:25;;;;;;;1.83;1.20;;;;;;;6.39;100.00;97281.00;5072268;28;20493;-72
2023/01/03 02:31:02;;;;;;;1.40;1.00;;;;;;;6.19;100.00;97275.94;5073472;28;20511;-72
2023/01/03 02:33:38;;;;;;;1.87;1.77;;;;;;;6.19;100.00;97305.59;5073460;28;20508;-72
2023/01/03 02:36:38;;;;;;;1.83;1.00;;;;;;;6.19;100.00;97305.59;5073478;28;20420;-72
2023/01/03 02:39:16;;;;;;;1.73;0.80;;;;;;;6.23;100.00;97309.22;5085557;28;20428;-72
2023/01/03 02:45:26;;;;;;;0.90;0.80;;;;;;;6.09;100.00;97300.41;5071785;28;20555;-72
2023/01/03 02:48:00;;;;;;;0.90;0.90;;;;;;;6.15;100.00;97306.41;5060516;28;20526;-72
2023/01/03 02:50:30;;;;;;;1.47;1.37;;;;;;;6.16;100.00;97300.13;5071875;28;20451;-72
2023/01/03 02:53:02;;;;;;;3.00;1.10;;;;;;;6.00;100.00;97288.91;5055123;28;20429;-72
2023/01/03 02:55:32;;;;;;;1.63;0.93;;;;;;;6.02;100.00;97286.81;5058756;28;20452;-72
2023/01/03 02:58:08;;;;;;;2.17;0.90;;;;;;;5.93;100.00;97270.84;5072978;28;20526;-72
2023/01/03 03:00:40;;;;;;;1.10;0.93;;;;;;;6.12;100.00;97275.44;5055337;28;20509;-72
2023/01/03 03:03:13;;;;;;;1.30;1.20;;;;;;;6.16;100.00;97310.63;5071426;28;20952;-72
2023/01/03 03:06:07;;;;;;;0.90;0.90;;;;;;;6.21;100.00;97307.94;5055327;28;20531;-72
2023/01/03 03:08:34;;;;;;;1.13;1.03;;;;;;;6.26;100.00;97304.50;5064465;28;20542;-72
2023/01/03 03:13:51;;;;;;;1.57;1.40;;;;;;;6.39;100.00;97304.66;5072901;28;20454;-72
2023/01/03 03:16:48;;;;;;;1.80;1.30;;;;;;;6.24;100.00;97317.88;5071310;28;20455;-72
2023/01/03 03:24:48;;;;;;;1.50;1.30;;;;;;;6.10;100.00;97311.69;5071285;28;20440;-73
2023/01/03 03:25:26;;;;;;;3.30;3.10;;;;;;;6.06;100.00;97293.06;5070861;28;20542;-73
2023/01/03 03:30:46;;;;;;;2.27;2.07;;;;;;;6.23;100.00;97318.94;5072330;28;20428;-73
2023/01/03 03:33:18;;;;;;;3.27;2.77;;;;;;;6.13;100.00;97317.16;5070800;28;20834;-72
2023/01/03 03:35:52;;;;;;;3.43;2.30;;;;;;;6.00;100.00;97288.13;5071239;28;20794;-72
2023/01/03 03:38:32;;;;;;;3.13;2.73;;;;;;;6.07;100.00;97314.88;5084221;28;20492;-72
2023/01/03 03:47:19;;;;;;;3.20;2.63;;;;;;;5.94;100.00;97321.50;5070702;28;20852;-72
2023/01/03 03:49:49;;;;;;;2.23;2.10;;;;;;;6.03;100.00;97324.34;5070860;28;20938;-72
2023/01/03 03:52:19;;;;;;;1.50;1.40;;;;;;;6.12;100.00;97302.47;5054128;28;20518;-72
2023/01/03 03:54:53;;;;;;;3.30;2.17;;;;;;;6.20;100.00;97325.53;5072113;28;20867;-73
2023/01/03 03:57:24;;;;;;;3.17;1.13;;;;;;;6.09;100.00;97318.78;5070836;28;20472;-72
2023/01/03 04:00:00;;;;;;;1.20;1.10;;;;;;;6.25;100.00;97323.94;5071539;28;20547;-72
2023/01/03 04:02:29;;;;;;;1.30;1.20;;;;;;;6.12;100.00;97328.72;5073268;28;20458;-72
2023/01/03 04:04:59;;;;;;;1.33;1.20;;;;;;;5.77;100.00;97292.97;5070345;28;20463;-72
2023/01/03 04:07:26;;;;;;;1.43;1.00;;;;;;;5.58;100.00;97282.28;5070674;28;20480;-72
2023/01/03 04:09:53;;;;;;;2.60;1.60;;;;;;;5.63;100.00;97305.09;5070756;28;20428;-72
2023/01/03 04:12:19;;;;;;;1.47;1.37;;;;;;;5.50;100.00;97300.44;5053766;28;20523;-72
2023/01/03 04:14:46;;;;;;;2.90;1.10;;;;;;;5.49;100.00;97310.16;5070439;28;20460;-72
2023/01/03 04:17:13;;;;;;;2.17;1.13;;;;;;;5.53;100.00;97313.00;5053782;28;20444;-72
2023/01/03 04:19:39;;;;;;;1.50;0.97;;;;;;;5.38;100.00;97298.13;5070291;28;20769;-72
2023/01/03 04:22:06;;;;;;;1.27;1.00;;;;;;;5.37;100.00;97295.78;5069439;28;20518;-72
2023/01/03 04:24:33;;;;;;;1.53;1.13;;;;;;;5.52;100.00;97303.56;5070573;28;20661;-72
2023/01/03 04:26:59;;;;;;;1.10;1.00;;;;;;;5.56;100.00;97329.00;5070063;28;20877;-72
2023/01/03 04:29:26;;;;;;;1.40;1.20;;;;;;;5.30;100.00;97302.06;5057069;28;21016;-72
2023/01/03 04:31:53;;;;;;;0.93;0.80;;;;;;;5.32;100.00;97302.59;5070138;28;20482;-72
2023/01/03 04:34:21;;;;;;;1.43;0.93;;;;;;;5.34;100.00;97302.31;5071530;28;20452;-72
2023/01/03 04:36:48;;;;;;;1.77;1.47;;;;;;;5.49;100.00;97325.88;5072121;28;20428;-72
2023/01/03 04:39:15;;;;;;;1.83;1.43;;;;;;;5.69;100.00;97340.75;5084094;28;20430;-72
2023/01/03 04:41:42;;;;;;;1.80;1.70;;;;;;;5.81;100.00;97325.47;5069934;28;20968;-72
2023/01/03 04:44:09;;;;;;;2.10;2.00;;;;;;;6.14;100.00;97352.09;5053409;28;20478;-72
2023/01/03 04:46:39;;;;;;;1.70;1.60;;;;;;;6.11;100.00;97348.16;5071244;28;20426;-72
2023/01/03 04:49:08;;;;;;;1.60;1.50;;;;;;;5.95;100.00;97354.56;5070127;28;20486;-72
2023/01/03 04:51:35;;;;;;;2.03;1.70;;;;;;;5.68;100.00;97347.03;5053427;28;20792;-72
2023/01/03 04:54:03;;;;;;;2.30;2.10;;;;;;;5.76;100.00;97353.59;5071267;28;20452;-72
2023/01/03 04:56:33;;;;;;;2.40;2.10;;;;;;;5.60;100.00;97339.72;5070410;28;20428;-72
2023/01/03 04:59:00;;;;;;;1.83;1.50;;;;;;;5.62;100.00;97350.75;5071300;28;20422;-72
2023/01/03 05:01:26;;;;;;;1.73;1.50;;;;;;;5.73;100.00;97357.50;5069778;28;20452;-72
2023/01/03 05:03:59;;;;;;;1.80;1.70;;;;;;;5.68;100.00;97356.75;5069842;28;20491;-72
2023/01/03 05:06:27;;;;;;;1.70;1.60;;;;;;;5.30;100.00;97306.53;5053405;28;20961;-72
2023/01/03 05:08:54;;;;;;;1.53;1.43;;;;;;;5.43;100.00;97328.78;5053377;28;20436;-72
2023/01/03 05:11:20;;;;;;;2.03;1.77;;;;;;;5.79;100.00;97361.69;5070433;28;20464;-72
2023/01/03 05:13:47;;;;;;;2.27;1.90;;;;;;;5.83;100.00;97370.59;5069843;28;20993;-72
2023/01/03 05:16:14;;;;;;;4.00;3.30;;;;;;;5.79;100.00;97382.69;5069791;28;20979;-72
2023/01/03 05:18:42;;;;;;;3.77;3.10;;;;;;;5.83;100.00;97373.22;5070242;28;20424;-72
2023/01/03 05:26:46;;;;;;;1.70;1.60;;;;;;;5.96;100.00;97387.63;5071117;28;20471;-72
2023/01/03 05:29:15;;;;;;;3.20;2.90;;;;;;;5.79;100.00;97387.94;5053296;28;20440;-72
2023/01/03 05:31:42;;;;;;;3.33;3.03;;;;;;;5.68;100.00;97370.66;5069957;28;20447;-72
2023/01/03 05:34:09;;;;;;;1.83;1.73;;;;;;;5.68;100.00;97357.53;5073330;28;20829;-72
2023/01/03 05:36:35;;;;;;;2.33;2.13;;;;;;;5.61;100.00;97362.31;5074834;28;20435;-72
2023/01/03 05:39:03;;;;;;;1.80;1.70;;;;;;;5.53;100.00;97365.47;5088337;28;20466;-72
2023/01/03 05:44:15;;;;;;;1.87;1.60;;;;;;;5.44;100.00;97380.97;5073357;28;20470;-72
2023/01/03 05:46:43;;;;;;;2.20;2.07;;;;;;;5.42;100.00;97379.66;5073803;28;20420;-72
2023/01/03 05:49:09;;;;;;;1.97;1.50;;;;;;;5.35;100.00;97387.81;5056702;28;20439;-72
2023/01/03 05:51:36;;;;;;;4.77;2.30;;;;;;;5.00;100.00;97351.97;5073003;28;20458;-72
2023/01/03 05:54:03;;;;;;;2.10;1.93;;;;;;;4.96;100.00;97354.34;5072965;28;20456;-72
2023/01/03 05:56:31;;;;;;;2.13;1.93;;;;;;;4.25;100.00;97286.25;5073108;28;20428;-71
2023/01/03 05:58:58;;;;;;;2.00;1.90;;;;;;;4.54;100.00;97351.19;5073229;28;20541;-72
2023/01/03 06:01:27;;;;;;;2.10;1.97;;;;;;;4.21;100.00;97332.31;5056734;28;20436;-72
2023/01/03 06:03:54;;;;;;;2.70;1.73;;;;;;;4.08;100.00;97349.31;5056656;28;20822;-72
2023/01/03 06:06:21;;;;;;;2.30;1.83;;;;;;;4.17;100.00;97382.84;5056569;28;20452;-72
2023/01/03 06:08:48;;;;;;;2.17;2.07;;;;;;;4.04;100.00;97387.50;5073339;28;20424;-72
2023/01/03 06:11:16;;;;;;;1.50;1.40;;;;;;;4.03;100.00;97375.47;5073232;28;20434;-72
2023/01/03 06:13:44;;;;;;;1.50;1.40;;;;;;;3.92;100.00;97366.03;5074642;28;20543;-72
2023/01/03 06:19:01;;;;;;;2.20;1.37;;;;;;;4.08;100.00;97393.78;5073327;28;20433;-72
2023/01/03 06:21:27;;;;;;;2.90;2.70;;;;;;;4.14;100.00;97398.03;5073222;28;20446;-72
2023/01/03 06:23:54;;;;;;;2.63;2.17;;;;;;;4.12;100.00;97380.97;5073711;28;20459;-72
2023/01/03 06:26:23;;;;;;;2.10;1.87;;;;;;;4.21;100.00;97404.81;5073336;28;20440;-71
2023/01/03 06:28:50;;;;;;;4.13;3.03;;;;;;;3.95;100.00;97373.34;5073415;28;20882;-72
2023/01/03 06:31:17;;;;;;;3.43;3.13;;;;;;;4.12;100.00;97415.78;5091878;28;20425;-72
2023/01/03 06:33:44;;;;;;;5.10;3.60;;;;;;;3.89;100.00;97386.69;5092368;28;20448;-71
2023/01/03 06:36:13;;;;;;;5.10;4.20;;;;;;;3.83;100.00;97393.72;5098034;28;20412;-72
2023/01/03 06:38:40;;;;;;;3.43;3.13;;;;;;;4.00;100.00;97417.03;5099696;28;20872;-71
2023/01/03 06:41:07;;;;;;;3.00;2.60;;;;;;;3.92;100.00;97409.72;5073091;28;20437;-72
2023/01/03 06:43:34;;;;;;;2.50;2.30;;;;;;;4.18;100.00;97426.28;5072109;28;20567;-72
2023/01/03 06:54:20;;;;;;;2.10;1.90;;;;;;;4.24;100.00;97435.72;5072004;28;20460;-72
2023/01/03 06:56:48;;;;;;;2.30;2.10;;;;;;;4.10;100.00;97435.41;5055614;28;20429;-72
2023/01/03 06:59:16;;;;;;;3.00;1.90;;;;;;;3.83;100.00;97414.63;5071919;28;20519;-72
2023/01/03 07:01:44;;;;;;;2.30;2.10;;;;;;;3.73;100.00;97412.75;5072130;28;20452;-71
2023/01/03 07:04:12;;;;;;;2.30;2.03;;;;;;;3.63;100.00;97415.34;5073162;28;20872;-72
2023/01/03 07:06:40;;;;;;;2.83;2.60;;;;;;;3.95;100.00;97446.59;5071467;28;20428;-72
2023/01/03 07:09:07;;;;;;;5.47;2.20;;;;;;;3.59;100.00;97416.88;5055016;28;20470;-72
2023/01/03 07:11:35;;;;;;;2.13;2.03;;;;;;;3.76;100.00;97446.28;5059800;28;20440;-72
2023/01/03 07:14:02;;;;;;;3.20;2.43;;;;;;;3.36;100.00;97425.91;5055183;28;20503;-72
2023/01/03 07:16:34;;;;;;;1.97;1.87;;;;;;;3.25;100.00;97460.88;5071668;28;20539;-72
2023/01/03 07:19:03;;;;;;;5.33;2.10;;;;;;;3.35;100.00;97453.09;5071458;28;20578;-72
2023/01/03 07:21:32;;;;;;;2.87;2.13;;;;;;;3.35;100.00;97458.31;5054828;28;20436;-72
2023/01/03 07:24:03;;;;;;;2.33;1.90;;;;;;;3.42;100.00;97464.09;5072483;28;20436;-72
2023/01/03 07:26:32;;;;;;;2.03;1.93;;;;;;;3.45;100.00;97462.81;5072313;28;20428;-72
2023/01/03 07:29:00;;;;;;;1.93;1.83;;;;;;;3.34;100.00;97456.75;5054669;28;20905;-72
2023/01/03 07:31:27;;;;;;;2.80;1.90;;;;;;;3.34;100.00;97464.59;5071050;28;20532;-72
2023/01/03 07:33:54;;;;;;;2.60;2.40;;;;;;;3.33;100.00;97470.03;5071058;28;21036;-72
2023/01/03 07:36:21;;;;;;;2.50;2.37;;;;;;;3.07;100.00;97445.56;5072591;28;20783;-72
2023/01/03 07:38:48;;;;;;;4.47;2.23;;;;;;;3.26;100.00;97471.06;5084651;28;20437;-72
2023/01/03 07:41:16;;;;;;;3.20;2.40;;;;;;;3.29;100.00;97472.38;5071069;28;20883;-72
2023/01/03 07:43:46;;;;;;;3.50;2.60;;;;;;;3.21;100.00;97460.59;5054237;28;20550;-72
2023/01/03 07:46:21;;;;;;;6.10;2.53;;;;;;;3.32;100.00;97481.53;5071138;28;20498;-72
2023/01/03 07:48:50;;;;;;;9.93;3.80;;;;;;;3.40;100.00;97479.25;5070950;28;20436;-72
2023/01/03 07:51:20;;;;;;;9.10;7.10;;;;;;;3.50;100.00;97484.56;5054383;28;20436;-71
2023/01/03 07:53:51;;;;;;;12.73;7.87;;;;;;;3.52;100.00;97473.84;5057563;28;20876;-71
2023/01/03 07:56:19;;;;;;;9.33;7.50;;;;;;;3.49;100.00;97469.91;5070633;28;20448;-72
2023/01/03 07:58:50;;;;;;;6.67;6.03;;;;;;;3.43;100.00;97459.66;5072051;28;20435;-72
2023/01/03 08:01:22;;;;;;;6.27;5.67;;;;;;;3.44;100.00;97459.41;5070684;28;20452;-71
2023/01/03 08:03:50;;;;;;;6.67;6.17;;;;;;;3.68;100.00;97485.97;5070811;28;20470;-71
2023/01/03 08:06:20;;;;;;;6.20;5.67;;;;;;;3.67;100.00;97489.63;5071913;28;20428;-72
2023/01/03 08:14:18;;;;;;;7.27;5.00;;;;;;;3.31;100.00;97477.34;5070137;28;20885;-72
2023/01/03 08:16:52;;;;;;;9.80;5.80;;;;;;;3.40;100.00;97474.03;5070357;28;20880;-72
2023/01/03 08:19:18;;;;;;;26.30;21.10;;;;;;;3.59;100.00;97478.84;5071388;28;20486;-72
2023/01/03 08:21:45;;;;;;;5.57;5.07;;;;;;;3.96;100.00;97497.09;5071403;28;21035;-72
2023/01/03 08:24:11;;;;;;;5.60;5.20;;;;;;;3.96;100.00;97513.59;5069952;28;21074;-72
2023/01/03 08:26:38;;;;;;;5.80;5.30;;;;;;;3.67;100.00;97463.47;5070299;28;20434;-73
2023/01/03 08:29:06;;;;;;;5.80;5.27;;;;;;;3.85;100.00;97510.13;5053439;28;20442;-73
2023/01/03 08:31:37;;;;;;;6.00;5.43;;;;;;;3.93;100.00;97508.09;5070208;28;20429;-73
2023/01/03 08:34:07;;;;;;;5.00;4.60;;;;;;;3.93;100.00;97511.50;5071220;28;20458;-73
2023/01/03 08:36:46;;;;;;;5.63;5.23;;;;;;;3.99;100.00;97514.91;5070226;28;20466;-73
2023/01/03 08:39:17;;;;;;;5.63;5.10;;;;;;;3.99;100.00;97518.31;5037512;28;21005;-74
2023/01/03 08:41:49;;;;;;;5.30;4.80;;;;;;;4.00;100.00;97516.47;5053412;28;20853;-73
2023/01/03 08:44:16;;;;;;;5.53;5.13;;;;;;;4.12;100.00;97510.00;5069547;28;20472;-74
2023/01/03 08:46:50;;;;;;;7.67;6.97;;;;;;;4.44;100.00;97520.34;5071187;28;20523;-74
2023/01/03 08:49:18;;;;;;;11.70;8.63;;;;;;;4.46;100.00;97493.91;5053316;28;20486;-74
2023/01/03 08:51:44;;;;;;;7.70;6.17;;;;;;;4.74;100.00;97526.72;5070291;28;20445;-74
2023/01/03 08:54:11;;;;;;;6.53;5.37;;;;;;;4.78;100.00;97535.63;5071982;28;20458;-74
2023/01/03 08:56:39;;;;;;;4.20;3.80;;;;;;;4.83;100.00;97543.50;5071933;28;20455;-74
2023/01/03 08:59:06;;;;;;;3.97;3.23;;;;;;;4.85;100.00;97545.88;5069927;28;20957;-73
2023/01/03 09:01:35;;;;;;;3.60;3.30;;;;;;;4.90;100.00;97546.66;5074705;28;20434;-74
2023/01/03 09:04:04;;;;;;;3.73;3.00;;;;;;;4.67;100.00;97500.78;5075332;28;20468;-74
2023/01/03 09:06:31;;;;;;;4.87;3.40;;;;;;;5.03;100.00;97561.09;5069509;28;20539;-74
2023/01/03 09:08:58;;;;;;;4.33;3.17;;;;;;;5.02;100.00;97547.22;5073340;28;20455;-74
2023/01/03 09:11:24;;;;;;;2.83;2.60;;;;;;;4.82;100.00;97531.47;5073683;28;20967;-74
2023/01/03 09:13:54;;;;;;;4.03;3.73;;;;;;;4.75;100.00;97529.06;5057043;28;20456;-74
2023/01/03 09:16:20;;;;;;;3.23;3.03;;;;;;;4.50;100.00;97488.94;5057065;28;20535;-74
2023/01/03 09:18:47;;;;;;;3.27;3.07;;;;;;;4.97;100.00;97541.97;5074216;28;20435;-74
2023/01/03 09:21:14;;;;;;;3.70;2.37;;;;;;;4.60;100.00;97468.00;5074315;28;20493;-74
2023/01/03 09:23:40;;;;;;;3.73;3.43;;;;;;;5.37;100.00;97558.78;5073481;28;20846;-74
2023/01/03 09:26:07;;;;;;;5.67;3.20;;;;;;;5.20;100.00;97561.66;5073436;28;20959;-74
2023/01/03 09:28:34;;;;;;;3.03;2.07;;;;;;;5.29;100.00;97556.69;5056862;28;20924;-74
2023/01/03 09:31:00;;;;;;;3.43;3.13;;;;;;;5.47;100.00;97550.13;5074885;28;20867;-73
2023/01/03 09:33:27;;;;;;;3.80;3.50;;;;;;;5.51;100.00;97549.34;5073352;28;20784;-73
2023/01/03 09:35:54;;;;;;;4.03;3.80;;;;;;;5.45;100.00;97542.50;5074639;28;20428;-74
2023/01/03 09:38:22;;;;;;;2.97;2.77;;;;;;;5.68;100.00;97556.16;5086842;28;20792;-73
2023/01/03 09:41:01;;;;;;;3.57;3.27;;;;;;;5.69;100.00;97562.97;5073125;28;20806;-74
2023/01/03 09:43:39;;;;;;;3.67;3.47;;;;;;;5.74;100.00;97555.09;5072958;28;20516;-74
2023/01/03 09:46:15;;;;;;;3.70;3.40;;;;;;;5.75;100.00;97559.31;5075005;28;20422;-74
2023/01/03 09:48:43;;;;;;;3.73;2.70;;;;;;;5.89;100.00;97557.72;5073119;28;20856;-74
2023/01/03 10:03:44;;;;;;;4.00;3.33;;;;;;;6.08;100.00;97552.72;5072500;28;20995;-74
2023/01/03 10:06:58;;;;;;;3.17;2.90;;;;;;;6.09;100.00;97562.16;5072616;28;20437;-74
2023/01/03 10:09:28;;;;;;;5.87;3.80;;;;;;;6.00;100.00;97567.16;5073894;28;20847;-73
2023/01/03 10:12:03;;;;;;;3.30;3.00;;;;;;;6.03;100.00;97568.50;5072575;28;20470;-73
2023/01/03 10:14:36;;;;;;;2.50;2.30;;;;;;;6.06;100.00;97565.31;5072587;28;20443;-74
2023/01/03 10:17:21;;;;;;;3.17;2.90;;;;;;;6.19;100.00;97565.56;5072889;28;20477;-74
2023/01/03 10:20:01;;;;;;;5.60;3.80;;;;;;;6.22;100.00;97565.00;5072248;28;20439;-73
2023/01/03 10:22:30;;;;;;;3.77;3.47;;;;;;;6.23;100.00;97560.53;5072445;28;20985;-74
2023/01/03 10:25:03;;;;;;;3.10;2.40;;;;;;;6.30;100.00;97563.69;5072181;28;20547;-74
2023/01/03 10:27:34;;;;;;;3.10;2.80;;;;;;;6.36;100.00;97574.97;5072224;28;20498;-74
2023/01/03 10:30:11;;;;;;;2.83;2.63;;;;;;;6.30;100.00;97570.78;5072606;28;20509;-74
2023/01/03 10:32:59;;;;;;;3.63;3.30;;;;;;;6.32;100.00;97572.09;5072123;28;20466;-74
2023/01/03 10:35:31;;;;;;;3.33;3.03;;;;;;;6.32;100.00;97563.41;5073313;28;20836;-73
2023/01/03 10:37:58;;;;;;;3.40;3.10;;;;;;;6.22;100.00;97533.50;5082481;28;20447;-74
2023/01/03 10:40:58;;;;;;;3.50;3.20;;;;;;;6.32;100.00;97566.03;5076507;28;20420;-74
2023/01/03 10:43:25;;;;;;;4.00;3.17;;;;;;;6.25;100.00;97565.53;5073288;28;20980;-73
2023/01/03 10:45:58;;;;;;;2.93;2.73;;;;;;;6.19;100.00;97543.75;5071962;28;20812;-73
2023/01/03 10:48:37;;;;;;;3.40;2.93;;;;;;;6.39;100.00;97558.66;5071885;28;20466;-74
2023/01/03 10:51:42;;;;;;;3.23;2.67;;;;;;;6.48;100.00;97549.94;5071826;28;20800;-74
2023/01/03 10:54:25;;;;;;;13.40;3.70;;;;;;;6.50;100.00;97554.94;5072293;28;20835;-74
2023/01/03 10:56:52;;;;;;;1.90;1.80;;;;;;;6.40;100.00;97539.22;5071728;28;20440;-74
2023/01/03 10:59:28;;;;;;;3.30;3.10;;;;;;;6.63;100.00;97550.94;5071704;28;20420;-74
2023/01/03 11:01:56;;;;;;;3.93;2.57;;;;;;;6.75;100.00;97541.69;5071726;28;20522;-74
2023/01/03 11:04:23;;;;;;;2.83;2.63;;;;;;;6.79;100.00;97544.53;5071423;28;20476;-74
2023/01/03 11:07:11;;;;;;;2.80;2.60;;;;;;;6.83;100.00;97553.47;5071644;28;20518;-74
2023/01/03 11:09:52;;;;;;;2.70;2.50;;;;;;;6.82;100.00;97546.66;5054898;28;20468;-73
2023/01/03 11:12:27;;;;;;;5.30;4.57;;;;;;;6.90;100.00;97546.06;5071586;28;20456;-74
2023/01/03 11:14:56;;;;;;;2.90;2.70;;;;;;;6.47;100.00;97463.53;5072677;28;20508;-74
2023/01/03 11:17:25;;;;;;;3.57;2.23;;;;;;;7.16;100.00;97545.91;5071264;28;20444;-74
2023/01/03 11:19:52;;;;;;;3.20;2.10;;;;;;;6.91;100.00;97529.22;5071440;28;20432;-74
2023/01/03 11:22:40;;;;;;;3.43;2.73;;;;;;;7.17;100.00;97542.22;5072432;28;20550;-74
2023/01/03 11:25:13;;;;;;;5.73;5.23;;;;;;;6.96;100.00;97542.38;5054735;28;20910;-74
2023/01/03 11:28:21;;;;;;;2.90;2.60;;;;;;;6.72;100.00;97541.44;5072485;28;20428;-74
2023/01/03 11:31:45;;;;;;;2.67;1.97;;;;;;;6.29;100.00;97472.03;5045339;28;20436;-74
2023/01/03 11:34:29;;;;;;;1.73;1.63;;;;;;;6.71;100.00;97539.88;4958261;28;20555;-74
2023/01/03 11:37:31;;;;;;;2.67;2.47;;;;;;;6.66;100.00;97538.03;4974328;28;20987;-74
2023/01/03 11:40:26;;;;;;;2.10;1.70;;;;;;;6.72;100.00;97521.22;5048253;28;20995;-74
2023/01/03 11:43:35;;;;;;;1.70;1.60;;;;;;;6.59;100.00;97494.75;5061311;28;20475;-74
2023/01/03 11:46:29;;;;;;;1.60;1.50;;;;;;;6.82;100.00;97530.88;5077204;28;20440;-74
2023/01/03 11:49:18;;;;;;;2.47;2.27;;;;;;;6.53;100.00;97510.50;5070850;28;20432;-74
2023/01/03 11:52:14;;;;;;;2.70;2.10;;;;;;;6.61;100.00;97526.78;5054080;28;20867;-74
2023/01/03 11:54:47;;;;;;;2.40;2.13;;;;;;;6.37;100.00;97511.63;4982186;28;20502;-74
2023/01/03 11:57:57;;;;;;;9.10;5.30;;;;;;;6.48;100.00;97531.56;5070483;28;20428;-74
2023/01/03 12:00:36;;;;;;;2.60;2.17;;;;;;;6.57;100.00;97534.44;5018291;28;20439;-75
2023/01/03 12:03:08;;;;;;;4.93;4.37;;;;;;;6.41;100.00;97515.31;5070338;28;20450;-75
2023/01/03 12:05:40;;;;;;;5.67;3.60;;;;;;;6.57;100.00;97533.63;5053930;28;20937;-75
2023/01/03 12:08:10;;;;;;;4.33;2.53;;;;;;;6.56;100.00;97538.09;5053798;28;20577;-75
2023/01/03 12:11:05;;;;;;;2.80;2.17;;;;;;;6.61;100.00;97538.06;5071656;28;20432;-75
2023/01/03 12:13:36;;;;;;;4.90;4.17;;;;;;;6.40;100.00;97497.97;5070501;28;20869;-75
2023/01/03 12:16:09;;;;;;;3.37;3.07;;;;;;;6.41;100.00;97499.56;5071623;28;20421;-74
2023/01/03 12:19:01;;;;;;;3.03;2.50;;;;;;;6.70;100.00;97527.78;5070834;28;20424;-74
2023/01/03 12:21:39;;;;;;;2.47;2.27;;;;;;;6.43;100.00;97510.56;5071309;28;20459;-74
2023/01/03 12:24:19;;;;;;;4.23;3.60;;;;;;;6.52;100.00;97526.53;5080927;28;20502;-74
2023/01/03 12:26:56;;;;;;;4.23;3.20;;;;;;;6.56;100.00;97488.19;5096821;28;20428;-72
2023/01/03 12:29:30;;;;;;;1.77;1.60;;;;;;;7.05;100.00;97526.78;5096845;28;20415;-73
2023/01/03 12:32:05;;;;;;;4.17;3.60;;;;;;;6.86;100.00;97516.13;5089494;28;20447;-75
2023/01/03 12:34:46;;;;;;;2.10;1.90;;;;;;;6.62;100.00;97523.09;5054735;28;20812;-73
2023/01/03 12:37:19;;;;;;;2.50;2.30;;;;;;;6.44;100.00;97517.41;5075611;28;20510;-73
2023/01/03 12:39:54;;;;;;;2.87;2.23;;;;;;;6.25;100.00;97521.66;5078759;28;20486;-75
2023/01/03 12:42:44;;;;;;;6.80;4.90;;;;;;;6.50;100.00;97521.56;5069312;28;20833;-75
2023/01/03 12:45:24;;;;;;;13.27;9.67;;;;;;;6.21;100.00;97497.00;5071475;28;21028;-76
2023/01/03 12:48:32;;;;;;;3.53;2.40;;;;;;;6.35;100.00;97516.38;5054429;28;20948;-76
2023/01/03 12:50:59;;;;;;;8.90;6.47;;;;;;;6.19;100.00;97493.88;5038548;28;20432;-76
2023/01/03 12:53:33;;;;;;;4.80;2.50;;;;;;;6.55;100.00;97517.38;5069852;28;20440;-76
2023/01/03 12:56:05;;;;;;;3.77;1.93;;;;;;;6.69;100.00;97511.25;5069736;28;20470;-74
2023/01/03 12:58:40;;;;;;;3.13;2.20;;;;;;;6.65;100.00;97507.56;5071103;28;20427;-74
2023/01/03 13:01:11;;;;;;;3.40;1.90;;;;;;;6.71;100.00;97510.97;5071055;28;20797;-74